sensor_id;sensor_type;location;lat;lon;timestamp;temperature;humidity
78788;DHT22;68131;52.508;5.502;2023-04-01T00:01:47;12.00;79.30
78788;DHT22;68131;52.508;5.502;2023-04-01T00:04:16;11.90;79.20
78788;DHT22;68131;52.508;5.502;2023-04-01T00:06:46;11.90;79.20
78788;DHT22;68131;52.508;5.502;2023-04-01T00:09:16;12.00;79.30
78788;DHT22;68131;52.508;5.502;2023-04-01T00:11:47;11.90;79.30
78788;DHT22;68131;52.508;5.502;2023-04-01T00:14:16;12.00;79.20
78788;DHT22;68131;52.508;5.502;2023-04-01T00:16:46;12.00;79.30
78788;DHT22;68131;52.508;5.502;2023-04-01T00:19:15;12.00;79.20
78788;DHT22;68131;52.508;5.502;2023-04-01T00:21:44;12.00;79.20
78788;DHT22;68131;52.508;5.502;2023-04-01T00:24:14;12.00;79.20
78788;DHT22;68131;52.508;5.502;2023-04-01T00:26:43;12.00;79.20
78788;DHT22;68131;52.508;5.502;2023-04-01T00:29:16;12.00;79.10
78788;DHT22;68131;52.508;5.502;2023-04-01T00:31:45;12.00;79.00
78788;DHT22;68131;52.508;5.502;2023-04-01T00:34:15;12.00;79.00
78788;DHT22;68131;52.508;5.502;2023-04-01T00:36:44;12.00;79.10
78788;DHT22;68131;52.508;5.502;2023-04-01T00:39:13;11.90;78.90
78788;DHT22;68131;52.508;5.502;2023-04-01T00:41:42;11.90;79.00
78788;DHT22;68131;52.508;5.502;2023-04-01T00:44:18;11.90;79.00
78788;DHT22;68131;52.508;5.502;2023-04-01T00:46:47;11.90;79.10
78788;DHT22;68131;52.508;5.502;2023-04-01T00:49:19;11.90;79.10
78788;DHT22;68131;52.508;5.502;2023-04-01T00:51:51;12.00;79.00
78788;DHT22;68131;52.508;5.502;2023-04-01T00:54:24;12.00;79.10
78788;DHT22;68131;52.508;5.502;2023-04-01T00:56:56;12.00;79.10
78788;DHT22;68131;52.508;5.502;2023-04-01T00:59:31;12.00;79.10
78788;DHT22;68131;52.508;5.502;2023-04-01T01:02:04;12.00;79.00
78788;DHT22;68131;52.508;5.502;2023-04-01T01:04:34;12.00;79.00
78788;DHT22;68131;52.508;5.502;2023-04-01T01:07:15;12.00;78.90
78788;DHT22;68131;52.508;5.502;2023-04-01T01:09:52;11.90;78.70
78788;DHT22;68131;52.508;5.502;2023-04-01T01:12:25;11.90;78.70
78788;DHT22;68131;52.508;5.502;2023-04-01T01:15:09;11.90;78.70
78788;DHT22;68131;52.508;5.502;2023-04-01T01:17:48;11.90;78.70
78788;DHT22;68131;52.508;5.502;2023-04-01T01:26:58;11.90;78.60
78788;DHT22;68131;52.508;5.502;2023-04-01T01:29:38;11.90;78.60
78788;DHT22;68131;52.508;5.502;2023-04-01T01:32:17;11.90;78.50
78788;DHT22;68131;52.508;5.502;2023-04-01T01:34:52;11.90;78.40
78788;DHT22;68131;52.508;5.502;2023-04-01T01:37:29;11.90;78.50
78788;DHT22;68131;52.508;5.502;2023-04-01T01:40:01;11.90;78.50
78788;DHT22;68131;52.508;5.502;2023-04-01T01:42:33;11.90;78.40
78788;DHT22;68131;52.508;5.502;2023-04-01T01:45:06;11.90;78.50
78788;DHT22;68131;52.508;5.502;2023-04-01T01:47:37;11.90;78.50
78788;DHT22;68131;52.508;5.502;2023-04-01T01:50:08;11.90;78.60
78788;DHT22;68131;52.508;5.502;2023-04-01T01:52:40;11.90;78.60
78788;DHT22;68131;52.508;5.502;2023-04-01T01:55:26;12.00;78.50
78788;DHT22;68131;52.508;5.502;2023-04-01T01:57:59;12.00;78.50
78788;DHT22;68131;52.508;5.502;2023-04-01T02:00:29;12.00;78.50
78788;DHT22;68131;52.508;5.502;2023-04-01T02:03:00;12.00;78.50
78788;DHT22;68131;52.508;5.502;2023-04-01T02:05:31;12.00;78.50
78788;DHT22;68131;52.508;5.502;2023-04-01T02:08:12;12.00;78.50
78788;DHT22;68131;52.508;5.502;2023-04-01T02:10:48;12.00;78.60
78788;DHT22;68131;52.508;5.502;2023-04-01T02:13:24;12.00;78.50
78788;DHT22;68131;52.508;5.502;2023-04-01T02:15:59;12.00;78.50
78788;DHT22;68131;52.508;5.502;2023-04-01T02:18:30;12.00;78.40
78788;DHT22;68131;52.508;5.502;2023-04-01T02:21:04;11.90;78.50
78788;DHT22;68131;52.508;5.502;2023-04-01T02:23:37;11.90;78.60
78788;DHT22;68131;52.508;5.502;2023-04-01T02:26:08;12.00;78.60
78788;DHT22;68131;52.508;5.502;2023-04-01T02:28:38;12.00;78.50
78788;DHT22;68131;52.508;5.502;2023-04-01T02:31:10;12.00;78.40
78788;DHT22;68131;52.508;5.502;2023-04-01T02:33:40;12.00;78.40
78788;DHT22;68131;52.508;5.502;2023-04-01T02:36:11;12.00;78.40
78788;DHT22;68131;52.508;5.502;2023-04-01T02:38:45;12.00;78.40
78788;DHT22;68131;52.508;5.502;2023-04-01T02:41:14;12.00;78.40
78788;DHT22;68131;52.508;5.502;2023-04-01T02:43:43;12.00;78.40
78788;DHT22;68131;52.508;5.502;2023-04-01T02:46:12;12.00;78.50
78788;DHT22;68131;52.508;5.502;2023-04-01T02:48:41;12.00;78.40
78788;DHT22;68131;52.508;5.502;2023-04-01T02:51:10;12.00;78.30
78788;DHT22;68131;52.508;5.502;2023-04-01T02:53:39;12.00;78.30
78788;DHT22;68131;52.508;5.502;2023-04-01T02:56:11;12.00;78.30
78788;DHT22;68131;52.508;5.502;2023-04-01T02:58:40;12.00;78.30
78788;DHT22;68131;52.508;5.502;2023-04-01T03:01:09;12.00;78.30
78788;DHT22;68131;52.508;5.502;2023-04-01T03:03:38;12.00;78.30
78788;DHT22;68131;52.508;5.502;2023-04-01T03:06:09;12.00;78.20
78788;DHT22;68131;52.508;5.502;2023-04-01T03:08:39;12.10;78.20
78788;DHT22;68131;52.508;5.502;2023-04-01T03:11:11;12.00;78.10
78788;DHT22;68131;52.508;5.502;2023-04-01T03:13:41;12.00;78.10
78788;DHT22;68131;52.508;5.502;2023-04-01T03:16:10;12.00;78.20
78788;DHT22;68131;52.508;5.502;2023-04-01T03:18:40;12.00;78.20
78788;DHT22;68131;52.508;5.502;2023-04-01T03:21:14;12.00;78.10
78788;DHT22;68131;52.508;5.502;2023-04-01T03:23:43;12.00;78.20
78788;DHT22;68131;52.508;5.502;2023-04-01T03:26:15;12.00;78.20
78788;DHT22;68131;52.508;5.502;2023-04-01T03:28:45;12.00;78.20
78788;DHT22;68131;52.508;5.502;2023-04-01T03:31:14;12.00;78.10
78788;DHT22;68131;52.508;5.502;2023-04-01T03:33:50;12.00;78.20
78788;DHT22;68131;52.508;5.502;2023-04-01T03:36:19;11.90;78.20
78788;DHT22;68131;52.508;5.502;2023-04-01T03:38:48;11.90;78.20
78788;DHT22;68131;52.508;5.502;2023-04-01T03:41:26;11.90;78.30
78788;DHT22;68131;52.508;5.502;2023-04-01T03:43:56;11.90;78.20
78788;DHT22;68131;52.508;5.502;2023-04-01T03:46:26;11.90;78.20
78788;DHT22;68131;52.508;5.502;2023-04-01T03:48:55;11.80;78.30
78788;DHT22;68131;52.508;5.502;2023-04-01T03:51:24;11.90;78.30
78788;DHT22;68131;52.508;5.502;2023-04-01T03:53:53;11.80;78.30
78788;DHT22;68131;52.508;5.502;2023-04-01T03:56:22;11.80;78.30
78788;DHT22;68131;52.508;5.502;2023-04-01T03:58:54;11.80;78.30
78788;DHT22;68131;52.508;5.502;2023-04-01T04:01:23;11.80;78.30
78788;DHT22;68131;52.508;5.502;2023-04-01T04:03:56;11.80;78.30
78788;DHT22;68131;52.508;5.502;2023-04-01T04:06:26;11.80;78.20
78788;DHT22;68131;52.508;5.502;2023-04-01T04:08:55;11.80;78.30
78788;DHT22;68131;52.508;5.502;2023-04-01T04:11:24;11.80;78.20
78788;DHT22;68131;52.508;5.502;2023-04-01T04:13:56;11.80;78.20
78788;DHT22;68131;52.508;5.502;2023-04-01T04:16:25;11.80;78.20
78788;DHT22;68131;52.508;5.502;2023-04-01T04:18:58;11.80;78.20
78788;DHT22;68131;52.508;5.502;2023-04-01T04:21:27;11.80;78.20
78788;DHT22;68131;52.508;5.502;2023-04-01T04:23:58;11.80;78.20
78788;DHT22;68131;52.508;5.502;2023-04-01T04:26:32;11.80;78.20
78788;DHT22;68131;52.508;5.502;2023-04-01T04:29:03;11.80;78.20
78788;DHT22;68131;52.508;5.502;2023-04-01T04:31:32;11.80;78.10
78788;DHT22;68131;52.508;5.502;2023-04-01T04:34:02;11.80;78.10
78788;DHT22;68131;52.508;5.502;2023-04-01T04:36:34;11.80;78.10
78788;DHT22;68131;52.508;5.502;2023-04-01T04:39:03;11.80;78.10
78788;DHT22;68131;52.508;5.502;2023-04-01T04:41:36;11.80;78.10
78788;DHT22;68131;52.508;5.502;2023-04-01T04:44:08;11.80;78.20
78788;DHT22;68131;52.508;5.502;2023-04-01T04:46:37;11.80;78.20
78788;DHT22;68131;52.508;5.502;2023-04-01T04:49:14;11.80;78.20
78788;DHT22;68131;52.508;5.502;2023-04-01T04:51:44;11.80;78.20
78788;DHT22;68131;52.508;5.502;2023-04-01T04:54:15;11.80;78.10
78788;DHT22;68131;52.508;5.502;2023-04-01T04:56:54;11.80;78.20
78788;DHT22;68131;52.508;5.502;2023-04-01T04:59:27;11.80;78.10
78788;DHT22;68131;52.508;5.502;2023-04-01T05:02:07;11.80;78.20
78788;DHT22;68131;52.508;5.502;2023-04-01T05:04:37;11.80;78.20
78788;DHT22;68131;52.508;5.502;2023-04-01T05:07:09;11.80;78.20
78788;DHT22;68131;52.508;5.502;2023-04-01T05:09:38;11.80;78.20
78788;DHT22;68131;52.508;5.502;2023-04-01T05:12:07;11.90;78.10
78788;DHT22;68131;52.508;5.502;2023-04-01T05:15:11;11.80;78.10
78788;DHT22;68131;52.508;5.502;2023-04-01T05:17:41;11.80;78.20
78788;DHT22;68131;52.508;5.502;2023-04-01T05:20:12;11.80;78.10
78788;DHT22;68131;52.508;5.502;2023-04-01T05:22:42;11.80;78.10
78788;DHT22;68131;52.508;5.502;2023-04-01T05:25:11;11.80;78.20
78788;DHT22;68131;52.508;5.502;2023-04-01T05:27:41;11.80;78.10
78788;DHT22;68131;52.508;5.502;2023-04-01T05:30:13;11.80;78.00
78788;DHT22;68131;52.508;5.502;2023-04-01T05:33:01;11.80;78.00
78788;DHT22;68131;52.508;5.502;2023-04-01T05:35:30;11.80;78.10
78788;DHT22;68131;52.508;5.502;2023-04-01T05:37:59;11.80;78.20
78788;DHT22;68131;52.508;5.502;2023-04-01T05:40:28;11.70;78.20
78788;DHT22;68131;52.508;5.502;2023-04-01T05:42:58;11.70;78.20
78788;DHT22;68131;52.508;5.502;2023-04-01T05:45:30;11.70;78.40
78788;DHT22;68131;52.508;5.502;2023-04-01T05:48:11;11.60;78.40
78788;DHT22;68131;52.508;5.502;2023-04-01T05:50:41;11.40;78.80
78788;DHT22;68131;52.508;5.502;2023-04-01T05:53:11;11.40;78.90
78788;DHT22;68131;52.508;5.502;2023-04-01T05:55:43;11.30;79.10
78788;DHT22;68131;52.508;5.502;2023-04-01T05:58:13;11.30;79.30
78788;DHT22;68131;52.508;5.502;2023-04-01T06:00:48;11.20;79.50
78788;DHT22;68131;52.508;5.502;2023-04-01T06:03:17;11.20;79.60
78788;DHT22;68131;52.508;5.502;2023-04-01T06:05:46;11.30;79.50
78788;DHT22;68131;52.508;5.502;2023-04-01T06:08:17;11.30;79.60
78788;DHT22;68131;52.508;5.502;2023-04-01T06:10:58;11.30;79.50
78788;DHT22;68131;52.508;5.502;2023-04-01T06:13:41;11.30;79.50
78788;DHT22;68131;52.508;5.502;2023-04-01T06:16:24;11.30;79.40
78788;DHT22;68131;52.508;5.502;2023-04-01T06:19:06;11.30;79.40
78788;DHT22;68131;52.508;5.502;2023-04-01T06:21:53;11.30;79.30
78788;DHT22;68131;52.508;5.502;2023-04-01T06:24:36;11.30;79.30
78788;DHT22;68131;52.508;5.502;2023-04-01T06:27:17;11.30;79.50
78788;DHT22;68131;52.508;5.502;2023-04-01T06:29:58;11.20;79.50
78788;DHT22;68131;52.508;5.502;2023-04-01T06:32:51;11.20;79.70
78788;DHT22;68131;52.508;5.502;2023-04-01T06:35:46;11.30;79.70
78788;DHT22;68131;52.508;5.502;2023-04-01T06:38:33;11.30;79.60
78788;DHT22;68131;52.508;5.502;2023-04-01T06:44:14;11.20;79.60
78788;DHT22;68131;52.508;5.502;2023-04-01T06:47:23;11.20;79.70
78788;DHT22;68131;52.508;5.502;2023-04-01T06:50:24;11.10;80.00
78788;DHT22;68131;52.508;5.502;2023-04-01T06:53:17;11.10;80.20
78788;DHT22;68131;52.508;5.502;2023-04-01T06:56:08;11.10;80.20
78788;DHT22;68131;52.508;5.502;2023-04-01T06:59:05;11.10;80.20
78788;DHT22;68131;52.508;5.502;2023-04-01T07:01:39;11.10;80.30
78788;DHT22;68131;52.508;5.502;2023-04-01T07:04:13;11.10;80.30
78788;DHT22;68131;52.508;5.502;2023-04-01T07:06:48;11.20;80.40
78788;DHT22;68131;52.508;5.502;2023-04-01T07:09:22;11.20;80.30
78788;DHT22;68131;52.508;5.502;2023-04-01T07:12:21;11.30;80.20
78788;DHT22;68131;52.508;5.502;2023-04-01T07:15:17;11.30;80.20
78788;DHT22;68131;52.508;5.502;2023-04-01T07:17:52;11.40;80.10
78788;DHT22;68131;52.508;5.502;2023-04-01T07:20:24;11.40;80.10
78788;DHT22;68131;52.508;5.502;2023-04-01T07:22:59;11.40;80.10
78788;DHT22;68131;52.508;5.502;2023-04-01T07:25:51;11.40;80.00
78788;DHT22;68131;52.508;5.502;2023-04-01T07:28:31;11.40;80.10
78788;DHT22;68131;52.508;5.502;2023-04-01T07:31:18;11.40;80.20
78788;DHT22;68131;52.508;5.502;2023-04-01T07:33:56;11.50;80.20
78788;DHT22;68131;52.508;5.502;2023-04-01T07:36:32;11.60;80.00
78788;DHT22;68131;52.508;5.502;2023-04-01T07:39:12;11.60;79.90
78788;DHT22;68131;52.508;5.502;2023-04-01T07:42:04;11.60;80.00
78788;DHT22;68131;52.508;5.502;2023-04-01T07:44:46;11.70;80.00
78788;DHT22;68131;52.508;5.502;2023-04-01T07:47:34;11.80;79.90
78788;DHT22;68131;52.508;5.502;2023-04-01T07:50:18;11.80;79.70
78788;DHT22;68131;52.508;5.502;2023-04-01T07:52:59;11.80;79.30
78788;DHT22;68131;52.508;5.502;2023-04-01T07:55:35;11.70;79.60
78788;DHT22;68131;52.508;5.502;2023-04-01T07:58:12;11.80;79.70
78788;DHT22;68131;52.508;5.502;2023-04-01T08:00:49;11.80;79.70
78788;DHT22;68131;52.508;5.502;2023-04-01T08:03:35;11.80;79.60
78788;DHT22;68131;52.508;5.502;2023-04-01T08:06:14;11.90;79.60
78788;DHT22;68131;52.508;5.502;2023-04-01T08:08:59;12.00;79.60
78788;DHT22;68131;52.508;5.502;2023-04-01T08:12:01;12.00;79.50
78788;DHT22;68131;52.508;5.502;2023-04-01T08:14:59;12.10;79.40
78788;DHT22;68131;52.508;5.502;2023-04-01T08:18:04;12.10;79.40
78788;DHT22;68131;52.508;5.502;2023-04-01T08:20:37;12.10;79.60
78788;DHT22;68131;52.508;5.502;2023-04-01T08:23:13;12.20;79.50
78788;DHT22;68131;52.508;5.502;2023-04-01T08:25:49;12.30;79.50
78788;DHT22;68131;52.508;5.502;2023-04-01T08:28:27;12.40;79.40
78788;DHT22;68131;52.508;5.502;2023-04-01T08:31:05;12.50;79.10
78788;DHT22;68131;52.508;5.502;2023-04-01T08:33:37;12.60;78.70
78788;DHT22;68131;52.508;5.502;2023-04-01T08:36:12;12.60;78.60
78788;DHT22;68131;52.508;5.502;2023-04-01T08:38:51;12.70;78.40
78788;DHT22;68131;52.508;5.502;2023-04-01T08:41:52;12.60;78.30
78788;DHT22;68131;52.508;5.502;2023-04-01T08:47:52;12.50;78.40
78788;DHT22;68131;52.508;5.502;2023-04-01T08:50:36;12.50;78.50
78788;DHT22;68131;52.508;5.502;2023-04-01T08:53:29;12.50;78.40
78788;DHT22;68131;52.508;5.502;2023-04-01T08:56:09;12.40;78.30
78788;DHT22;68131;52.508;5.502;2023-04-01T08:58:59;12.40;78.40
78788;DHT22;68131;52.508;5.502;2023-04-01T09:01:58;12.30;78.50
78788;DHT22;68131;52.508;5.502;2023-04-01T09:05:30;12.30;78.60
78788;DHT22;68131;52.508;5.502;2023-04-01T09:08:12;12.30;78.80
78788;DHT22;68131;52.508;5.502;2023-04-01T09:11:04;12.30;78.50
78788;DHT22;68131;52.508;5.502;2023-04-01T09:14:16;12.20;78.80
78788;DHT22;68131;52.508;5.502;2023-04-01T09:17:20;12.20;78.90
78788;DHT22;68131;52.508;5.502;2023-04-01T09:20:15;12.20;79.00
78788;DHT22;68131;52.508;5.502;2023-04-01T09:23:28;12.20;79.10
78788;DHT22;68131;52.508;5.502;2023-04-01T09:26:07;12.30;79.10
78788;DHT22;68131;52.508;5.502;2023-04-01T09:28:45;12.30;78.90
78788;DHT22;68131;52.508;5.502;2023-04-01T09:31:50;12.40;79.00
78788;DHT22;68131;52.508;5.502;2023-04-01T09:34:53;12.40;78.80
78788;DHT22;68131;52.508;5.502;2023-04-01T09:37:35;12.30;78.90
78788;DHT22;68131;52.508;5.502;2023-04-01T09:40:17;12.30;79.10
78788;DHT22;68131;52.508;5.502;2023-04-01T09:43:11;12.30;79.20
78788;DHT22;68131;52.508;5.502;2023-04-01T09:45:52;12.30;78.90
78788;DHT22;68131;52.508;5.502;2023-04-01T09:48:43;12.30;78.70
78788;DHT22;68131;52.508;5.502;2023-04-01T09:51:27;12.30;78.90
78788;DHT22;68131;52.508;5.502;2023-04-01T09:54:10;12.20;78.70
78788;DHT22;68131;52.508;5.502;2023-04-01T10:00:07;12.20;78.80
78788;DHT22;68131;52.508;5.502;2023-04-01T10:03:30;12.20;78.70
78788;DHT22;68131;52.508;5.502;2023-04-01T10:12:39;12.20;78.70
78788;DHT22;68131;52.508;5.502;2023-04-01T10:21:56;12.30;78.40
78788;DHT22;68131;52.508;5.502;2023-04-01T10:31:12;12.40;78.90
78788;DHT22;68131;52.508;5.502;2023-04-01T10:34:10;12.40;79.00
78788;DHT22;68131;52.508;5.502;2023-04-01T10:36:51;12.40;79.10
78788;DHT22;68131;52.508;5.502;2023-04-01T10:49:47;12.50;79.20
78788;DHT22;68131;52.508;5.502;2023-04-01T10:52:54;12.50;79.00
78788;DHT22;68131;52.508;5.502;2023-04-01T11:02:58;12.50;78.80
78788;DHT22;68131;52.508;5.502;2023-04-01T11:06:37;12.50;78.90
78788;DHT22;68131;52.508;5.502;2023-04-01T11:12:33;12.50;78.80
78788;DHT22;68131;52.508;5.502;2023-04-01T11:15:25;12.50;78.80
78788;DHT22;68131;52.508;5.502;2023-04-01T11:21:15;12.60;78.10
78788;DHT22;68131;52.508;5.502;2023-04-01T11:24:07;12.50;77.80
78788;DHT22;68131;52.508;5.502;2023-04-01T11:27:01;12.40;78.00
78788;DHT22;68131;52.508;5.502;2023-04-01T11:30:15;12.40;78.20
78788;DHT22;68131;52.508;5.502;2023-04-01T11:32:52;12.30;78.50
78788;DHT22;68131;52.508;5.502;2023-04-01T11:35:40;12.30;78.50
78788;DHT22;68131;52.508;5.502;2023-04-01T11:38:22;12.30;78.50
78788;DHT22;68131;52.508;5.502;2023-04-01T11:41:22;12.20;78.70
78788;DHT22;68131;52.508;5.502;2023-04-01T11:44:19;12.20;78.90
78788;DHT22;68131;52.508;5.502;2023-04-01T11:47:27;12.20;79.10
78788;DHT22;68131;52.508;5.502;2023-04-01T11:50:10;12.20;79.20
78788;DHT22;68131;52.508;5.502;2023-04-01T11:55:53;12.20;79.40
78788;DHT22;68131;52.508;5.502;2023-04-01T11:58:47;12.10;79.50
78788;DHT22;68131;52.508;5.502;2023-04-01T12:01:29;12.20;79.60
78788;DHT22;68131;52.508;5.502;2023-04-01T12:04:13;12.20;79.60
78788;DHT22;68131;52.508;5.502;2023-04-01T12:06:48;12.20;79.60
78788;DHT22;68131;52.508;5.502;2023-04-01T12:09:25;12.20;79.80
78788;DHT22;68131;52.508;5.502;2023-04-01T12:12:11;12.30;79.50
78788;DHT22;68131;52.508;5.502;2023-04-01T12:14:46;12.20;79.70
78788;DHT22;68131;52.508;5.502;2023-04-01T12:17:29;12.20;79.50
78788;DHT22;68131;52.508;5.502;2023-04-01T12:20:24;12.20;79.60
78788;DHT22;68131;52.508;5.502;2023-04-01T12:23:04;12.30;79.80
78788;DHT22;68131;52.508;5.502;2023-04-01T12:26:01;12.30;79.50
78788;DHT22;68131;52.508;5.502;2023-04-01T12:28:41;12.20;79.20
78788;DHT22;68131;52.508;5.502;2023-04-01T12:31:29;12.10;79.10
78788;DHT22;68131;52.508;5.502;2023-04-01T12:34:20;12.10;79.20
78788;DHT22;68131;52.508;5.502;2023-04-01T12:37:01;12.00;79.20
78788;DHT22;68131;52.508;5.502;2023-04-01T12:39:51;12.00;79.40
78788;DHT22;68131;52.508;5.502;2023-04-01T12:42:38;12.00;79.70
78788;DHT22;68131;52.508;5.502;2023-04-01T12:45:27;11.90;79.70
78788;DHT22;68131;52.508;5.502;2023-04-01T12:51:11;12.00;79.80
78788;DHT22;68131;52.508;5.502;2023-04-01T12:54:08;12.00;79.90
78788;DHT22;68131;52.508;5.502;2023-04-01T12:56:51;12.10;79.60
78788;DHT22;68131;52.508;5.502;2023-04-01T12:59:42;12.10;79.20
78788;DHT22;68131;52.508;5.502;2023-04-01T13:02:23;12.20;79.00
78788;DHT22;68131;52.508;5.502;2023-04-01T13:05:10;12.20;79.30
78788;DHT22;68131;52.508;5.502;2023-04-01T13:07:55;12.20;79.00
78788;DHT22;68131;52.508;5.502;2023-04-01T13:10:38;12.20;78.50
78788;DHT22;68131;52.508;5.502;2023-04-01T13:13:28;12.20;78.80
78788;DHT22;68131;52.508;5.502;2023-04-01T13:16:05;12.20;78.60
78788;DHT22;68131;52.508;5.502;2023-04-01T13:18:43;12.20;78.30
78788;DHT22;68131;52.508;5.502;2023-04-01T13:21:20;12.20;78.50
78788;DHT22;68131;52.508;5.502;2023-04-01T13:23:59;12.10;78.80
78788;DHT22;68131;52.508;5.502;2023-04-01T13:26:42;12.10;78.90
78788;DHT22;68131;52.508;5.502;2023-04-01T13:29:18;12.10;78.10
78788;DHT22;68131;52.508;5.502;2023-04-01T13:34:48;12.10;78.20
78788;DHT22;68131;52.508;5.502;2023-04-01T13:37:31;12.00;78.20
78788;DHT22;68131;52.508;5.502;2023-04-01T13:40:14;12.00;78.40
78788;DHT22;68131;52.508;5.502;2023-04-01T13:42:53;12.00;78.40
78788;DHT22;68131;52.508;5.502;2023-04-01T13:45:25;12.00;78.00
78788;DHT22;68131;52.508;5.502;2023-04-01T13:48:20;12.00;78.00
78788;DHT22;68131;52.508;5.502;2023-04-01T13:51:16;11.90;77.90
78788;DHT22;68131;52.508;5.502;2023-04-01T13:56:59;11.90;77.30
78788;DHT22;68131;52.508;5.502;2023-04-01T13:59:50;11.90;77.60
78788;DHT22;68131;52.508;5.502;2023-04-01T14:02:49;11.80;77.90
78788;DHT22;68131;52.508;5.502;2023-04-01T14:05:35;11.80;78.10
78788;DHT22;68131;52.508;5.502;2023-04-01T14:08:17;11.80;78.30
78788;DHT22;68131;52.508;5.502;2023-04-01T14:10:55;11.80;78.20
78788;DHT22;68131;52.508;5.502;2023-04-01T14:13:31;11.80;78.00
78788;DHT22;68131;52.508;5.502;2023-04-01T14:16:23;11.70;77.70
78788;DHT22;68131;52.508;5.502;2023-04-01T14:19:08;11.70;77.70
78788;DHT22;68131;52.508;5.502;2023-04-01T14:21:43;11.70;77.90
78788;DHT22;68131;52.508;5.502;2023-04-01T14:24:36;11.70;78.30
78788;DHT22;68131;52.508;5.502;2023-04-01T14:30:36;11.70;78.00
78788;DHT22;68131;52.508;5.502;2023-04-01T14:33:25;11.60;78.40
78788;DHT22;68131;52.508;5.502;2023-04-01T14:36:04;11.60;78.60
78788;DHT22;68131;52.508;5.502;2023-04-01T14:38:47;11.50;78.80
78788;DHT22;68131;52.508;5.502;2023-04-01T14:41:26;11.40;78.90
78788;DHT22;68131;52.508;5.502;2023-04-01T14:44:16;11.40;79.20
78788;DHT22;68131;52.508;5.502;2023-04-01T14:50:14;11.40;78.50
78788;DHT22;68131;52.508;5.502;2023-04-01T14:52:56;11.40;78.40
78788;DHT22;68131;52.508;5.502;2023-04-01T14:55:33;11.40;78.40
78788;DHT22;68131;52.508;5.502;2023-04-01T14:58:11;11.40;78.40
78788;DHT22;68131;52.508;5.502;2023-04-01T15:00:50;11.40;77.90
78788;DHT22;68131;52.508;5.502;2023-04-01T15:03:29;11.30;77.90
78788;DHT22;68131;52.508;5.502;2023-04-01T15:09:00;11.30;78.40
78788;DHT22;68131;52.508;5.502;2023-04-01T15:11:43;11.30;78.60
78788;DHT22;68131;52.508;5.502;2023-04-01T15:14:49;11.20;78.70
78788;DHT22;68131;52.508;5.502;2023-04-01T15:17:35;11.20;79.00
78788;DHT22;68131;52.508;5.502;2023-04-01T15:20:21;11.10;78.90
78788;DHT22;68131;52.508;5.502;2023-04-01T15:23:02;11.10;78.90
78788;DHT22;68131;52.508;5.502;2023-04-01T15:25:42;11.00;78.90
78788;DHT22;68131;52.508;5.502;2023-04-01T15:28:23;10.90;78.70
78788;DHT22;68131;52.508;5.502;2023-04-01T15:31:01;10.90;78.70
78788;DHT22;68131;52.508;5.502;2023-04-01T15:33:50;10.80;78.90
78788;DHT22;68131;52.508;5.502;2023-04-01T15:36:35;10.70;79.10
78788;DHT22;68131;52.508;5.502;2023-04-01T15:39:14;10.60;79.40
78788;DHT22;68131;52.508;5.502;2023-04-01T15:42:04;10.60;79.70
78788;DHT22;68131;52.508;5.502;2023-04-01T15:44:58;10.60;79.20
78788;DHT22;68131;52.508;5.502;2023-04-01T15:47:37;10.60;79.00
78788;DHT22;68131;52.508;5.502;2023-04-01T15:53:18;10.70;78.00
78788;DHT22;68131;52.508;5.502;2023-04-01T15:55:56;10.60;78.10
78788;DHT22;68131;52.508;5.502;2023-04-01T15:58:45;10.60;77.90
78788;DHT22;68131;52.508;5.502;2023-04-01T16:01:28;10.60;78.00
78788;DHT22;68131;52.508;5.502;2023-04-01T16:04:18;10.60;77.60
78788;DHT22;68131;52.508;5.502;2023-04-01T16:07:02;10.50;77.40
78788;DHT22;68131;52.508;5.502;2023-04-01T16:09:47;10.50;77.80
78788;DHT22;68131;52.508;5.502;2023-04-01T16:12:34;10.50;77.90
78788;DHT22;68131;52.508;5.502;2023-04-01T16:15:14;10.40;77.80
78788;DHT22;68131;52.508;5.502;2023-04-01T16:18:04;10.40;78.00
78788;DHT22;68131;52.508;5.502;2023-04-01T16:20:44;10.40;78.20
78788;DHT22;68131;52.508;5.502;2023-04-01T16:23:18;10.40;78.40
78788;DHT22;68131;52.508;5.502;2023-04-01T16:25:52;10.40;78.30
78788;DHT22;68131;52.508;5.502;2023-04-01T16:28:31;10.30;78.40
78788;DHT22;68131;52.508;5.502;2023-04-01T16:31:06;10.30;78.50
78788;DHT22;68131;52.508;5.502;2023-04-01T16:33:47;10.30;78.50
78788;DHT22;68131;52.508;5.502;2023-04-01T16:36:27;10.30;78.30
78788;DHT22;68131;52.508;5.502;2023-04-01T16:39:20;10.30;77.90
78788;DHT22;68131;52.508;5.502;2023-04-01T16:42:08;10.30;77.90
78788;DHT22;68131;52.508;5.502;2023-04-01T16:44:50;10.30;77.90
78788;DHT22;68131;52.508;5.502;2023-04-01T16:47:23;10.20;77.80
78788;DHT22;68131;52.508;5.502;2023-04-01T16:50:00;10.20;77.50
78788;DHT22;68131;52.508;5.502;2023-04-01T16:52:48;10.10;77.80
78788;DHT22;68131;52.508;5.502;2023-04-01T16:55:35;10.10;77.80
78788;DHT22;68131;52.508;5.502;2023-04-01T16:58:06;10.10;77.90
78788;DHT22;68131;52.508;5.502;2023-04-01T17:00:44;10.10;78.10
78788;DHT22;68131;52.508;5.502;2023-04-01T17:03:20;10.00;77.70
78788;DHT22;68131;52.508;5.502;2023-04-01T17:06:02;10.00;78.00
78788;DHT22;68131;52.508;5.502;2023-04-01T17:08:46;10.00;78.10
78788;DHT22;68131;52.508;5.502;2023-04-01T17:11:24;9.90;78.20
78788;DHT22;68131;52.508;5.502;2023-04-01T17:13:58;9.90;78.50
78788;DHT22;68131;52.508;5.502;2023-04-01T17:17:05;9.90;78.50
78788;DHT22;68131;52.508;5.502;2023-04-01T17:20:10;9.80;78.60
78788;DHT22;68131;52.508;5.502;2023-04-01T17:22:48;9.80;78.70
78788;DHT22;68131;52.508;5.502;2023-04-01T17:25:28;9.90;78.90
78788;DHT22;68131;52.508;5.502;2023-04-01T17:28:08;9.80;78.90
78788;DHT22;68131;52.508;5.502;2023-04-01T17:30:43;9.70;79.10
78788;DHT22;68131;52.508;5.502;2023-04-01T17:33:53;9.70;79.20
78788;DHT22;68131;52.508;5.502;2023-04-01T17:36:45;9.70;79.00
78788;DHT22;68131;52.508;5.502;2023-04-01T17:39:32;9.60;79.10
78788;DHT22;68131;52.508;5.502;2023-04-01T17:42:06;9.50;79.30
78788;DHT22;68131;52.508;5.502;2023-04-01T17:44:47;9.50;79.10
78788;DHT22;68131;52.508;5.502;2023-04-01T17:47:41;9.40;79.20
78788;DHT22;68131;52.508;5.502;2023-04-01T17:50:30;9.40;78.90
78788;DHT22;68131;52.508;5.502;2023-04-01T17:53:17;9.40;78.80
78788;DHT22;68131;52.508;5.502;2023-04-01T17:55:59;9.40;78.20
78788;DHT22;68131;52.508;5.502;2023-04-01T17:58:39;9.30;78.20
78788;DHT22;68131;52.508;5.502;2023-04-01T18:01:22;9.30;78.10
78788;DHT22;68131;52.508;5.502;2023-04-01T18:04:18;9.30;78.10
78788;DHT22;68131;52.508;5.502;2023-04-01T18:07:05;9.30;78.20
78788;DHT22;68131;52.508;5.502;2023-04-01T18:09:45;9.20;78.10
78788;DHT22;68131;52.508;5.502;2023-04-01T18:12:28;9.30;78.00
78788;DHT22;68131;52.508;5.502;2023-04-01T18:15:08;9.20;77.50
78788;DHT22;68131;52.508;5.502;2023-04-01T18:17:45;9.20;77.70
78788;DHT22;68131;52.508;5.502;2023-04-01T18:20:31;9.20;77.80